createdAt,value
2018-04-13T00:01:03.578Z,19.20
2018-04-13T00:03:31.224Z,21.37
2018-04-13T00:05:58.817Z,16.17
2018-04-13T00:08:26.413Z,16.77
2018-04-13T00:10:54.041Z,19.87
2018-04-13T00:13:21.649Z,17.90
2018-04-13T00:15:49.238Z,17.00
2018-04-13T00:18:16.861Z,16.20
2018-04-13T00:20:44.482Z,18.67
2018-04-13T00:23:12.094Z,17.13
2018-04-13T00:25:39.691Z,20.57
2018-04-13T00:28:07.425Z,20.03
2018-04-13T00:30:35.021Z,21.07
2018-04-13T00:33:02.619Z,22.73
2018-04-13T00:35:30.257Z,19.40
2018-04-13T00:37:57.909Z,18.17
2018-04-13T00:40:25.518Z,21.37
2018-04-13T00:42:53.118Z,21.37
2018-04-13T00:45:20.721Z,21.23
2018-04-13T00:47:48.361Z,23.90
2018-04-13T00:50:15.955Z,20.17
2018-04-13T00:52:46.095Z,23.80
2018-04-13T00:55:13.719Z,29.03
2018-04-13T00:57:41.397Z,21.53
2018-04-13T01:00:09.006Z,22.90
2018-04-13T01:02:36.677Z,23.10
2018-04-13T01:05:04.301Z,23.33
2018-04-13T01:07:31.901Z,22.10
2018-04-13T01:09:59.482Z,23.80
2018-04-13T01:12:30.401Z,25.43
2018-04-13T01:14:58.001Z,24.07
2018-04-13T01:17:25.589Z,27.23
2018-04-13T01:19:53.220Z,25.63
2018-04-13T01:22:20.810Z,24.87
2018-04-13T01:24:48.441Z,27.70
2018-04-13T01:27:16.037Z,24.37
2018-04-13T01:29:43.646Z,24.67
2018-04-13T01:32:11.236Z,27.50
2018-04-13T01:34:38.853Z,26.77
2018-04-13T01:37:06.437Z,24.97
2018-04-13T01:39:34.047Z,22.70
2018-04-13T01:42:01.659Z,27.47
2018-04-13T01:44:29.338Z,27.27
2018-04-13T01:46:56.961Z,28.30
2018-04-13T01:49:24.565Z,23.10
2018-04-13T01:51:52.165Z,29.07
2018-04-13T01:54:19.797Z,30.40
2018-04-13T01:56:47.388Z,27.07
2018-04-13T01:59:14.977Z,28.97
2018-04-13T02:01:42.581Z,30.00
2018-04-13T02:04:10.211Z,27.90
2018-04-13T02:06:37.801Z,27.30
2018-04-13T02:09:05.426Z,30.80
2018-04-13T02:11:33.034Z,27.07
2018-04-13T02:14:00.661Z,28.07
2018-04-13T02:16:28.253Z,26.90
2018-04-13T02:18:55.848Z,28.23
2018-04-13T02:21:23.449Z,34.43
2018-04-13T02:23:51.053Z,29.27
2018-04-13T02:26:18.647Z,29.87
2018-04-13T02:28:46.253Z,30.47
2018-04-13T02:31:13.852Z,30.47
2018-04-13T02:33:41.433Z,32.80
2018-04-13T02:36:09.024Z,33.77
2018-04-13T02:38:36.713Z,36.83
2018-04-13T02:41:04.314Z,34.53
2018-04-13T02:43:31.937Z,35.53
2018-04-13T02:45:59.537Z,31.80
2018-04-13T02:48:27.134Z,32.37
2018-04-13T02:50:54.824Z,37.30
2018-04-13T02:53:22.406Z,37.07
2018-04-13T02:55:50.033Z,35.03
2018-04-13T02:58:17.665Z,36.10
2018-04-13T03:00:45.277Z,35.43
2018-04-13T03:03:12.918Z,32.13
2018-04-13T03:05:40.526Z,42.13
2018-04-13T03:08:08.137Z,35.50
2018-04-13T03:10:35.786Z,39.00
2018-04-13T03:13:03.373Z,37.23
2018-04-13T03:15:30.989Z,41.00
2018-04-13T03:17:58.640Z,36.70
2018-04-13T03:20:26.233Z,37.60
2018-04-13T03:22:53.838Z,39.47
2018-04-13T03:25:21.553Z,35.23
2018-04-13T03:27:49.153Z,40.83
2018-04-13T03:30:16.763Z,38.70
2018-04-13T03:32:44.397Z,38.97
2018-04-13T03:35:12.015Z,40.30
2018-04-13T03:37:39.600Z,41.77
2018-04-13T03:40:07.246Z,48.37
2018-04-13T03:42:34.852Z,41.07
2018-04-13T03:45:02.487Z,41.83
2018-04-13T03:47:30.080Z,39.47
2018-04-13T03:49:57.712Z,41.03
2018-04-13T03:52:25.302Z,40.90
2018-04-13T03:54:52.889Z,41.27
2018-04-13T03:57:20.505Z,46.40
2018-04-13T03:59:48.141Z,44.57
2018-04-13T04:02:15.738Z,41.47
2018-04-13T04:04:43.342Z,43.17
2018-04-13T04:07:10.968Z,41.27
2018-04-13T04:09:38.577Z,43.73
2018-04-13T04:12:06.174Z,47.07
2018-04-13T04:14:33.818Z,38.33
2018-04-13T04:17:01.414Z,41.37
2018-04-13T04:19:40.818Z,40.33
2018-04-13T04:22:20.009Z,39.17
2018-04-13T04:25:00.148Z,41.13
2018-04-13T04:27:27.775Z,40.53
2018-04-13T04:29:55.373Z,33.70
2018-04-13T04:32:22.966Z,37.43
2018-04-13T04:34:50.558Z,42.23
2018-04-13T04:37:18.146Z,33.87
2018-04-13T04:39:45.773Z,35.13
2018-04-13T04:42:13.410Z,38.50
2018-04-13T04:44:41.022Z,41.20
2018-04-13T04:47:08.746Z,40.47
2018-04-13T04:49:36.341Z,44.20
2018-04-13T04:52:03.941Z,41.63
2018-04-13T04:54:31.546Z,40.13
2018-04-13T04:56:59.201Z,40.43
2018-04-13T04:59:26.951Z,40.77
2018-04-13T05:01:54.586Z,44.33
2018-04-13T05:04:22.177Z,39.90
2018-04-13T05:06:49.814Z,35.20
2018-04-13T05:09:17.428Z,40.50
2018-04-13T05:11:45.126Z,37.80
2018-04-13T05:14:12.725Z,36.07
2018-04-13T05:16:40.329Z,42.63
2018-04-13T05:19:07.960Z,40.33
2018-04-13T05:21:35.557Z,45.90
2018-04-13T05:24:03.205Z,36.37
2018-04-13T05:26:30.834Z,36.43
2018-04-13T05:28:58.424Z,30.47
2018-04-13T05:31:26.038Z,34.03
2018-04-13T05:33:53.666Z,36.60
2018-04-13T05:36:21.277Z,31.53
2018-04-13T05:38:48.868Z,30.33
2018-04-13T05:41:16.503Z,30.10
2018-04-13T05:43:44.097Z,35.10
2018-04-13T05:46:11.714Z,30.23
2018-04-13T05:48:39.414Z,30.73
2018-04-13T05:51:07.049Z,31.17
2018-04-13T05:53:34.682Z,33.63
2018-04-13T05:56:02.307Z,35.33
2018-04-13T05:58:29.996Z,34.07
2018-04-13T06:00:57.633Z,40.07
2018-04-13T06:03:26.458Z,36.20
2018-04-13T06:05:54.148Z,34.40
2018-04-13T06:08:21.769Z,35.13
2018-04-13T06:10:49.384Z,33.73
2018-04-13T06:13:17.011Z,31.17
2018-04-13T06:15:44.636Z,32.10
2018-04-13T06:18:12.262Z,30.83
2018-04-13T06:20:39.853Z,31.63
2018-04-13T06:23:07.457Z,28.93
2018-04-13T06:25:35.067Z,35.03
2018-04-13T06:28:02.687Z,32.63
2018-04-13T06:30:30.277Z,75.10
2018-04-13T06:32:57.869Z,37.37
2018-04-13T06:35:25.480Z,35.03
2018-04-13T06:37:53.085Z,28.70
2018-04-13T06:40:20.799Z,34.23
2018-04-13T06:42:48.393Z,34.37
2018-04-13T06:45:16.014Z,37.97
2018-04-13T06:47:43.641Z,33.60
2018-04-13T06:50:11.245Z,32.30
2018-04-13T06:52:38.835Z,33.27
2018-04-13T06:55:06.449Z,33.10
2018-04-13T06:57:34.077Z,37.90
2018-04-13T07:00:01.720Z,32.80
2018-04-13T07:02:29.372Z,31.07
2018-04-13T07:04:56.977Z,32.93
2018-04-13T07:07:24.599Z,31.67
2018-04-13T07:09:52.283Z,38.47
2018-04-13T07:12:19.908Z,29.93
2018-04-13T07:14:47.498Z,37.03
2018-04-13T07:17:15.101Z,33.87
2018-04-13T07:19:42.697Z,35.70
2018-04-13T07:22:10.373Z,33.03
2018-04-13T07:24:37.993Z,29.10
2018-04-13T07:27:05.631Z,28.00
2018-04-13T07:29:33.261Z,33.53
2018-04-13T07:32:00.849Z,36.37
2018-04-13T07:34:28.990Z,31.67
2018-04-13T07:36:56.813Z,30.70
2018-04-13T07:39:24.438Z,29.10
2018-04-13T07:41:52.076Z,35.80
2018-04-13T07:44:19.702Z,30.70
2018-04-13T07:46:47.307Z,30.27
2018-04-13T07:49:14.973Z,34.57
2018-04-13T07:51:42.569Z,33.43
2018-04-13T07:54:10.186Z,30.43
2018-04-13T07:56:37.817Z,26.33
2018-04-13T07:59:05.407Z,30.97
2018-04-13T08:01:33.005Z,37.63
2018-04-13T08:04:00.635Z,33.80
2018-04-13T08:06:28.270Z,31.40
2018-04-13T08:08:55.882Z,34.97
2018-04-13T08:11:23.517Z,32.03
2018-04-13T08:13:51.113Z,33.93
2018-04-13T08:16:18.749Z,31.93
2018-04-13T08:18:46.341Z,30.90
2018-04-13T08:21:13.949Z,31.33
2018-04-13T08:23:41.570Z,29.30
2018-04-13T08:26:09.184Z,32.03
2018-04-13T08:28:36.799Z,27.07
2018-04-13T08:31:04.389Z,31.53
2018-04-13T08:33:32.013Z,25.10
2018-04-13T08:35:59.600Z,30.20
2018-04-13T08:38:27.213Z,34.03
2018-04-13T08:40:54.842Z,28.53
2018-04-13T08:43:22.473Z,40.40
2018-04-13T08:45:50.049Z,37.07
2018-04-13T08:48:17.649Z,29.00
2018-04-13T08:50:45.261Z,26.00
2018-04-13T08:53:12.927Z,28.67
2018-04-13T08:55:40.521Z,31.37
2018-04-13T08:58:08.121Z,26.47
2018-04-13T09:00:35.745Z,26.70
2018-04-13T09:03:03.337Z,28.63
2018-04-13T09:05:30.980Z,29.80
2018-04-13T09:07:58.573Z,27.83
2018-04-13T09:10:26.182Z,27.63
2018-04-13T09:12:53.785Z,30.27
2018-04-13T09:15:21.426Z,30.23
2018-04-13T09:17:49.009Z,33.93
2018-04-13T09:20:16.625Z,29.93
2018-04-13T09:22:44.249Z,28.43
2018-04-13T09:25:11.855Z,25.53
2018-04-13T09:27:39.485Z,25.27
2018-04-13T09:30:07.225Z,30.83
2018-04-13T09:32:34.817Z,25.90
2018-04-13T09:35:02.434Z,26.33
2018-04-13T09:37:30.131Z,23.47
2018-04-13T09:39:57.716Z,26.23
2018-04-13T09:42:25.312Z,24.43
2018-04-13T09:44:52.943Z,25.93
2018-04-13T09:47:20.535Z,24.73
2018-04-13T09:49:48.121Z,26.27
2018-04-13T09:52:15.752Z,25.73
2018-04-13T09:54:44.170Z,24.80
2018-04-13T09:57:11.773Z,25.77
2018-04-13T09:59:39.389Z,23.40
2018-04-13T10:02:07.046Z,21.67
2018-04-13T10:04:40.233Z,24.13
2018-04-13T10:07:07.836Z,23.40
2018-04-13T10:09:35.439Z,29.90
2018-04-13T10:12:03.045Z,28.50
2018-04-13T10:14:30.633Z,20.43
2018-04-13T10:16:58.333Z,22.90
2018-04-13T10:19:25.924Z,22.53
2018-04-13T10:21:53.522Z,19.90
2018-04-13T10:24:21.109Z,20.63
2018-04-13T10:26:48.768Z,21.33
2018-04-13T10:29:16.361Z,17.87
2018-04-13T10:31:43.948Z,22.50
2018-04-13T10:34:11.574Z,21.67
2018-04-13T10:36:39.258Z,19.80
2018-04-13T10:39:06.876Z,19.63
2018-04-13T10:41:34.500Z,20.73
2018-04-13T10:44:02.117Z,16.73
2018-04-13T10:46:29.715Z,19.37
2018-04-13T10:48:57.309Z,17.70
2018-04-13T10:51:24.941Z,16.27
2018-04-13T10:53:52.642Z,17.87
2018-04-13T10:56:20.237Z,14.87
2018-04-13T10:58:47.865Z,18.53
2018-04-13T11:01:15.473Z,17.27
2018-04-13T11:03:43.109Z,20.07
2018-04-13T11:06:10.721Z,17.13
2018-04-13T11:08:38.313Z,19.03
2018-04-13T11:11:05.945Z,20.73
2018-04-13T11:13:33.533Z,18.33
2018-04-13T11:16:01.141Z,18.60
2018-04-13T11:18:28.753Z,19.30
2018-04-13T11:20:56.449Z,23.97
2018-04-13T11:23:24.062Z,20.13
2018-04-13T11:25:51.657Z,20.83
2018-04-13T11:28:19.285Z,20.27
2018-04-13T11:30:46.873Z,19.97
2018-04-13T11:33:14.461Z,16.57
2018-04-13T11:35:42.064Z,18.13
2018-04-13T11:38:09.684Z,16.73
2018-04-13T11:40:37.357Z,17.70
2018-04-13T11:43:04.954Z,18.37
2018-04-13T11:45:32.541Z,18.33
2018-04-13T11:48:00.180Z,18.43
2018-04-13T11:50:27.833Z,23.37
2018-04-13T11:52:55.417Z,17.60
2018-04-13T11:55:23.105Z,18.97
2018-04-13T11:57:50.697Z,19.37
2018-04-13T12:00:18.297Z,11.83
2018-04-13T12:02:45.957Z,17.10
2018-04-13T12:05:13.573Z,18.80
2018-04-13T12:07:41.181Z,23.20
2018-04-13T12:10:08.805Z,18.87
2018-04-13T12:12:36.411Z,17.73
2018-04-13T12:15:04.111Z,17.73
2018-04-13T12:17:31.709Z,19.57
2018-04-13T12:19:59.344Z,19.17
2018-04-13T12:22:26.934Z,17.47
2018-04-13T12:24:54.548Z,14.70
2018-04-13T12:27:22.169Z,16.73
2018-04-13T12:29:49.763Z,16.10
2018-04-13T12:32:17.440Z,17.17
2018-04-13T12:34:45.073Z,17.43
2018-04-13T12:37:12.697Z,16.17
2018-04-13T12:39:40.289Z,15.93
2018-04-13T12:42:07.914Z,19.37
2018-04-13T12:44:35.514Z,12.87
2018-04-13T12:47:03.101Z,17.07
2018-04-13T12:49:30.729Z,14.60
2018-04-13T12:51:58.321Z,12.10
2018-04-13T12:54:26.013Z,14.37
2018-04-13T12:56:53.537Z,22.30
2018-04-13T12:59:21.413Z,16.17
2018-04-13T13:01:49.042Z,19.70
2018-04-13T13:04:16.629Z,13.47
2018-04-13T13:06:44.231Z,15.73
2018-04-13T13:09:11.857Z,20.00
2018-04-13T13:11:39.454Z,17.03
2018-04-13T13:14:07.053Z,16.27
2018-04-13T13:16:34.675Z,14.17
2018-04-13T13:19:02.253Z,15.90
2018-04-13T13:21:29.881Z,14.83
2018-04-13T13:23:57.494Z,17.47
2018-04-13T13:26:25.093Z,15.97
2018-04-13T13:28:52.694Z,16.17
2018-04-13T13:31:20.302Z,18.27
2018-04-13T13:33:47.945Z,14.00
2018-04-13T13:36:15.546Z,16.97
2018-04-13T13:38:43.134Z,15.00
2018-04-13T13:41:10.745Z,13.20
2018-04-13T13:43:38.333Z,16.27
2018-04-13T13:46:05.915Z,16.00
2018-04-13T13:48:33.509Z,17.30
2018-04-13T13:51:01.207Z,14.33
2018-04-13T13:53:28.800Z,12.37
2018-04-13T13:55:56.413Z,14.07
2018-04-13T13:58:24.004Z,13.40
2018-04-13T14:00:51.594Z,20.80
2018-04-13T14:03:19.210Z,14.57
2018-04-13T14:05:46.797Z,15.33
2018-04-13T14:08:14.409Z,17.43
2018-04-13T14:10:42.065Z,12.63
2018-04-13T14:13:09.650Z,15.67
2018-04-13T14:15:37.273Z,12.83
2018-04-13T14:18:04.925Z,16.33
2018-04-13T14:20:32.528Z,18.97
2018-04-13T14:23:00.121Z,12.13
2018-04-13T14:25:27.718Z,14.13
2018-04-13T14:27:55.349Z,13.17
2018-04-13T14:30:23.032Z,14.13
2018-04-13T14:32:50.605Z,13.37
2018-04-13T14:35:18.250Z,21.73
2018-04-13T14:37:45.853Z,17.40
2018-04-13T14:40:13.444Z,12.67
2018-04-13T14:42:41.046Z,15.27
2018-04-13T14:45:08.649Z,14.93
2018-04-13T14:47:36.241Z,12.67
2018-04-13T14:50:03.919Z,14.67
2018-04-13T14:52:31.505Z,15.13
2018-04-13T14:54:59.082Z,15.40
2018-04-13T14:57:26.721Z,11.63
2018-04-13T14:59:54.309Z,13.10
2018-04-13T15:02:21.901Z,17.37
2018-04-13T15:04:49.529Z,16.03
2018-04-13T15:07:17.157Z,15.50
2018-04-13T15:09:44.844Z,17.17
2018-04-13T15:12:12.479Z,17.77
2018-04-13T15:14:42.109Z,10.93
2018-04-13T15:17:09.698Z,17.23
2018-04-13T15:19:37.321Z,15.73
2018-04-13T15:22:04.934Z,18.33
2018-04-13T15:24:32.529Z,13.93
2018-04-13T15:27:00.150Z,18.13
2018-04-13T15:29:27.745Z,11.53
2018-04-13T15:31:55.425Z,11.40
2018-04-13T15:34:23.127Z,18.10
2018-04-13T15:36:50.721Z,13.77
2018-04-13T15:39:18.341Z,15.93
2018-04-13T15:41:45.957Z,15.90
2018-04-13T15:44:13.544Z,13.60
2018-04-13T15:46:41.138Z,18.00
2018-04-13T15:49:08.753Z,23.87
2018-04-13T15:51:36.372Z,21.30
2018-04-13T15:54:04.052Z,20.63
2018-04-13T15:56:31.693Z,24.63
2018-04-13T15:58:59.293Z,18.17
2018-04-13T16:01:26.901Z,15.50
2018-04-13T16:03:54.508Z,27.10
2018-04-13T16:06:22.108Z,23.13
2018-04-13T16:08:49.832Z,19.63
2018-04-13T16:11:17.421Z,23.83
2018-04-13T16:13:45.046Z,20.23
2018-04-13T16:16:12.673Z,18.27
2018-04-13T16:18:40.301Z,21.27
2018-04-13T16:21:07.893Z,20.63
2018-04-13T16:23:35.499Z,25.10
2018-04-13T16:26:03.086Z,21.30
2018-04-13T16:28:30.723Z,26.70
2018-04-13T16:30:58.321Z,23.37
2018-04-13T16:33:25.980Z,17.97
2018-04-13T16:35:53.559Z,18.93
2018-04-13T16:38:21.221Z,20.97
2018-04-13T16:40:48.834Z,18.33
2018-04-13T16:43:16.497Z,13.47
2018-04-13T16:45:44.081Z,14.20
2018-04-13T16:48:11.705Z,17.43
2018-04-13T16:50:39.316Z,19.13
2018-04-13T16:53:06.916Z,16.63
2018-04-13T16:55:34.577Z,22.60
2018-04-13T16:58:02.168Z,22.47
2018-04-13T17:00:29.762Z,26.87
2018-04-13T17:02:57.384Z,25.67
2018-04-13T17:05:24.978Z,24.30
2018-04-13T17:07:52.621Z,26.37
2018-04-13T17:10:20.269Z,34.00
2018-04-13T17:12:47.858Z,31.23
2018-04-13T17:15:15.505Z,24.87
2018-04-13T17:17:43.113Z,26.33
2018-04-13T17:20:10.716Z,28.53
2018-04-13T17:22:38.338Z,29.33
2018-04-13T17:25:05.948Z,26.20
2018-04-13T17:27:33.535Z,31.00
2018-04-13T17:30:01.162Z,28.57
2018-04-13T17:32:28.753Z,23.80
2018-04-13T17:34:56.345Z,29.33
2018-04-13T17:37:23.941Z,33.17
2018-04-13T17:39:51.534Z,24.13
2018-04-13T17:42:19.133Z,40.17
2018-04-13T17:44:46.741Z,33.40
2018-04-13T17:47:14.332Z,34.97
2018-04-13T17:49:41.942Z,24.03
2018-04-13T17:52:09.615Z,37.10
2018-04-13T17:54:37.201Z,29.90
2018-04-13T17:57:04.794Z,23.50
2018-04-13T17:59:32.418Z,35.57
2018-04-13T18:02:00.017Z,30.67
2018-04-13T18:04:27.621Z,26.40
2018-04-13T18:06:55.308Z,28.63
2018-04-13T18:09:22.920Z,32.50
2018-04-13T18:11:50.534Z,29.27
2018-04-13T18:14:18.165Z,27.80
2018-04-13T18:16:45.752Z,34.63
2018-04-13T18:19:13.342Z,21.10
2018-04-13T18:21:40.935Z,25.00
2018-04-13T18:24:08.525Z,28.77
2018-04-13T18:26:36.125Z,30.27
2018-04-13T18:29:03.756Z,29.47
2018-04-13T18:31:31.388Z,31.03
2018-04-13T18:33:58.985Z,28.30
2018-04-13T18:36:26.569Z,26.13
2018-04-13T18:38:54.190Z,28.60
2018-04-13T18:41:21.777Z,26.23
2018-04-13T18:43:49.389Z,25.40
2018-04-13T18:46:17.076Z,22.97
2018-04-13T18:48:44.676Z,19.20
2018-04-13T18:51:12.297Z,18.47
2018-04-13T18:53:39.929Z,18.73
2018-04-13T18:56:07.520Z,16.87
2018-04-13T18:58:35.134Z,19.53
2018-04-13T19:01:02.725Z,17.50
2018-04-13T19:03:30.367Z,26.03
2018-04-13T19:05:58.002Z,23.20
2018-04-13T19:08:25.633Z,16.60
2018-04-13T19:10:54.267Z,16.10
2018-04-13T19:13:22.010Z,17.03
2018-04-13T19:15:49.667Z,19.43
2018-04-13T19:18:17.278Z,19.73
2018-04-13T19:20:44.899Z,20.60
2018-04-13T19:23:12.541Z,19.77
2018-04-13T19:25:40.145Z,17.17
2018-04-13T19:28:07.748Z,21.33
2018-04-13T19:30:35.452Z,17.90
2018-04-13T19:33:03.105Z,11.67
2018-04-13T19:35:30.750Z,13.97
2018-04-13T19:37:58.390Z,17.00
2018-04-13T19:40:26.026Z,15.97
2018-04-13T19:42:53.637Z,16.17
2018-04-13T19:45:21.339Z,14.23
2018-04-13T19:47:49.186Z,15.90
2018-04-13T19:50:16.821Z,17.27
2018-04-13T19:52:44.409Z,14.47
2018-04-13T19:55:12.045Z,21.47
2018-04-13T19:57:39.658Z,17.53
2018-04-13T20:00:07.290Z,16.27
2018-04-13T20:02:34.939Z,16.43
2018-04-13T20:05:02.541Z,18.10
2018-04-13T20:07:30.189Z,15.90
2018-04-13T20:09:57.792Z,18.90
2018-04-13T20:12:25.409Z,15.37
2018-04-13T20:14:53.021Z,17.80
2018-04-13T20:17:20.609Z,20.37
2018-04-13T20:19:48.281Z,17.20
2018-04-13T20:22:15.873Z,14.20
2018-04-13T20:24:43.465Z,14.33
2018-04-13T20:27:11.117Z,20.63
2018-04-13T20:29:38.725Z,16.87
2018-04-13T20:32:06.327Z,22.87
2018-04-13T20:34:33.957Z,15.30
2018-04-13T20:37:01.569Z,21.40
2018-04-13T20:39:29.161Z,14.90
2018-04-13T20:41:56.761Z,18.13
2018-04-13T20:44:24.366Z,15.43
2018-04-13T20:46:51.953Z,18.17
2018-04-13T20:49:19.597Z,24.83
2018-04-13T20:51:47.213Z,18.07
2018-04-13T20:54:14.813Z,22.10
2018-04-13T20:56:42.474Z,23.70
2018-04-13T20:59:10.062Z,22.77
2018-04-13T21:01:37.697Z,21.27
2018-04-13T21:04:05.305Z,19.27
2018-04-13T21:06:32.945Z,20.20
2018-04-13T21:09:00.577Z,19.20
2018-04-13T21:11:28.165Z,20.67
2018-04-13T21:13:55.781Z,18.67
2018-04-13T21:16:23.498Z,17.80
2018-04-13T21:18:51.123Z,18.73
2018-04-13T21:21:19.593Z,17.63
2018-04-13T21:23:47.188Z,18.50
2018-04-13T21:26:14.828Z,15.43
2018-04-13T21:28:42.425Z,18.93
2018-04-13T21:31:10.035Z,14.67
2018-04-13T21:33:37.665Z,17.30
2018-04-13T21:36:05.257Z,19.10
2018-04-13T21:38:32.850Z,19.17
2018-04-13T21:41:00.459Z,19.73
2018-04-13T21:43:28.055Z,18.67
2018-04-13T21:45:55.660Z,21.63
2018-04-13T21:48:23.290Z,20.40
2018-04-13T21:50:50.928Z,20.27
2018-04-13T21:53:18.534Z,13.73
2018-04-13T21:55:46.128Z,18.33
2018-04-13T21:58:13.717Z,13.47
2018-04-13T22:00:41.330Z,14.30
2018-04-13T22:03:08.953Z,14.90
2018-04-13T22:05:36.558Z,19.70
2018-04-13T22:08:04.202Z,18.27
2018-04-13T22:10:31.797Z,21.27
2018-04-13T22:13:11.105Z,16.17
2018-04-13T22:15:39.001Z,18.97
2018-04-13T22:18:06.657Z,17.33
2018-04-13T22:20:34.244Z,18.70
2018-04-13T22:23:01.847Z,17.13
2018-04-13T22:25:29.469Z,16.60
2018-04-13T22:27:57.057Z,17.53
2018-04-13T22:30:24.649Z,16.77
2018-04-13T22:32:52.244Z,17.07
2018-04-13T22:35:19.837Z,17.07
2018-04-13T22:37:47.444Z,22.53
2018-04-13T22:40:15.132Z,16.70
2018-04-13T22:42:42.709Z,20.50
2018-04-13T22:45:10.297Z,21.03
2018-04-13T22:47:37.949Z,22.60
2018-04-13T22:50:05.552Z,19.83
2018-04-13T22:52:33.144Z,25.87
2018-04-13T22:55:00.742Z,19.53
2018-04-13T22:57:28.345Z,20.63
2018-04-13T22:59:55.933Z,18.60
2018-04-13T23:02:23.565Z,18.00
2018-04-13T23:04:51.204Z,17.47
2018-04-13T23:07:18.806Z,20.00
2018-04-13T23:09:46.434Z,14.23
2018-04-13T23:12:14.027Z,15.20
2018-04-13T23:14:41.626Z,14.80
2018-04-13T23:17:09.230Z,14.63
2018-04-13T23:19:36.849Z,19.13
2018-04-13T23:22:04.452Z,15.00
2018-04-13T23:24:32.177Z,16.93
2018-04-13T23:26:59.792Z,14.50
2018-04-13T23:29:27.421Z,17.77
2018-04-13T23:31:55.029Z,14.60
2018-04-13T23:34:22.626Z,13.07
2018-04-13T23:36:50.222Z,19.27
2018-04-13T23:39:17.882Z,16.30
2018-04-13T23:41:45.469Z,15.63
2018-04-13T23:44:13.065Z,15.03
2018-04-13T23:46:40.706Z,17.63
2018-04-13T23:49:08.294Z,12.73
2018-04-13T23:51:35.899Z,9.30
2018-04-13T23:54:03.525Z,12.40
2018-04-13T23:56:31.117Z,12.83
2018-04-13T23:58:58.730Z,13.27
